createdAt,value
2022-08-29T00:01:54.619Z,14.78
2022-08-29T00:04:16.149Z,14.65
2022-08-29T00:06:37.974Z,14.63
2022-08-29T00:08:59.422Z,14.73
2022-08-29T00:11:21.739Z,14.76
2022-08-29T00:13:43.415Z,14.79
2022-08-29T00:16:05.916Z,14.51
2022-08-29T00:18:27.789Z,14.36
2022-08-29T00:20:49.690Z,14.28
2022-08-29T00:23:12.548Z,14.35
2022-08-29T00:25:34.038Z,14.30
2022-08-29T00:27:55.493Z,14.35
2022-08-29T00:30:18.979Z,14.38
2022-08-29T00:32:40.529Z,14.26
2022-08-29T00:35:10.075Z,14.29
2022-08-29T00:37:31.664Z,14.12
2022-08-29T00:39:53.570Z,14.00
2022-08-29T00:42:15.018Z,14.02
2022-08-29T00:44:36.463Z,14.06
2022-08-29T00:47:05.486Z,14.08
2022-08-29T00:49:55.650Z,14.00
2022-08-29T00:52:32.324Z,13.88
2022-08-29T00:54:55.844Z,13.74
2022-08-29T00:57:20.174Z,13.76
2022-08-29T00:59:42.007Z,13.75
2022-08-29T01:02:05.308Z,13.58
2022-08-29T01:04:27.493Z,13.38
2022-08-29T01:06:49.209Z,13.40
2022-08-29T01:09:11.785Z,13.49
2022-08-29T01:11:51.883Z,13.44
2022-08-29T01:14:14.563Z,13.09
2022-08-29T01:16:37.594Z,13.14
2022-08-29T01:19:03.920Z,13.31
2022-08-29T01:22:00.343Z,13.38
2022-08-29T01:24:46.037Z,13.27
2022-08-29T01:27:09.391Z,13.51
2022-08-29T01:29:30.866Z,13.28
2022-08-29T01:31:57.044Z,13.11
2022-08-29T01:34:20.384Z,13.13
2022-08-29T01:36:50.383Z,13.19
2022-08-29T01:39:11.848Z,13.22
2022-08-29T01:41:33.515Z,13.28
2022-08-29T01:43:56.576Z,13.23
2022-08-29T01:46:21.766Z,13.04
2022-08-29T01:48:45.578Z,13.04
2022-08-29T01:51:07.906Z,13.02
2022-08-29T01:53:29.379Z,12.86
2022-08-29T01:55:50.836Z,12.79
2022-08-29T01:58:12.366Z,12.86
2022-08-29T02:00:34.274Z,12.89
2022-08-29T02:02:56.842Z,12.92
2022-08-29T02:05:23.352Z,12.86
2022-08-29T02:07:44.781Z,12.77
2022-08-29T02:10:07.381Z,12.62
2022-08-29T02:12:29.820Z,12.60
2022-08-29T02:14:51.380Z,12.71
2022-08-29T02:17:12.891Z,12.70
2022-08-29T02:19:35.651Z,12.50
2022-08-29T02:21:57.674Z,12.48
2022-08-29T02:24:25.770Z,12.52
2022-08-29T02:26:47.674Z,12.47
2022-08-29T02:29:09.688Z,12.42
2022-08-29T02:31:31.791Z,12.55
2022-08-29T02:33:54.573Z,12.53
2022-08-29T02:36:16.680Z,12.64
2022-08-29T02:38:41.065Z,12.59
2022-08-29T02:41:02.590Z,12.56
2022-08-29T02:43:24.443Z,12.62
2022-08-29T02:45:46.582Z,12.38
2022-08-29T02:48:08.790Z,12.46
2022-08-29T02:50:30.581Z,12.24
2022-08-29T02:52:53.072Z,12.33
2022-08-29T02:55:17.382Z,12.09
2022-08-29T02:57:38.926Z,12.04
2022-08-29T03:00:00.548Z,12.13
2022-08-29T03:02:22.286Z,12.12
2022-08-29T03:04:43.773Z,12.23
2022-08-29T03:07:05.489Z,12.27
2022-08-29T03:09:26.937Z,12.21
2022-08-29T03:11:48.403Z,12.11
2022-08-29T03:14:09.841Z,12.04
2022-08-29T03:16:31.370Z,11.77
2022-08-29T03:18:53.447Z,11.68
2022-08-29T03:21:17.140Z,11.80
2022-08-29T03:23:38.577Z,11.86
2022-08-29T03:26:00.085Z,11.92
2022-08-29T03:28:21.689Z,11.80
2022-08-29T03:30:43.264Z,11.82
2022-08-29T03:33:07.852Z,11.87
2022-08-29T03:35:32.623Z,11.77
2022-08-29T03:37:55.613Z,11.69
2022-08-29T03:40:19.131Z,11.70
2022-08-29T03:42:42.889Z,11.78
2022-08-29T03:45:09.758Z,11.80
2022-08-29T03:47:31.200Z,11.74
2022-08-29T03:49:52.639Z,11.77
2022-08-29T03:52:14.109Z,11.69
2022-08-29T03:54:36.497Z,11.72
2022-08-29T03:56:58.017Z,11.81
2022-08-29T03:59:19.930Z,11.89
2022-08-29T04:01:41.441Z,11.69
2022-08-29T04:04:03.242Z,11.72
2022-08-29T04:06:28.186Z,11.57
2022-08-29T04:08:51.228Z,11.43
2022-08-29T04:11:14.910Z,11.53
2022-08-29T04:13:37.122Z,11.59
2022-08-29T04:15:58.573Z,11.44
2022-08-29T04:18:21.627Z,11.55
2022-08-29T04:20:45.567Z,11.39
2022-08-29T04:23:07.367Z,11.49
2022-08-29T04:25:37.211Z,11.54
2022-08-29T04:27:59.158Z,11.59
2022-08-29T04:30:23.889Z,11.23
2022-08-29T04:32:45.760Z,11.29
2022-08-29T04:35:08.554Z,11.44
2022-08-29T04:37:30.030Z,11.48
2022-08-29T04:39:51.595Z,11.42
2022-08-29T04:42:17.056Z,11.39
2022-08-29T04:44:41.076Z,11.34
2022-08-29T04:47:02.619Z,11.35
2022-08-29T04:49:24.139Z,11.26
2022-08-29T04:51:45.568Z,11.06
2022-08-29T04:54:07.099Z,11.21
2022-08-29T04:56:28.533Z,11.07
2022-08-29T04:58:52.115Z,11.22
2022-08-29T05:01:21.007Z,11.25
2022-08-29T05:03:43.480Z,11.22
2022-08-29T05:06:08.214Z,11.19
2022-08-29T05:08:30.311Z,11.36
2022-08-29T05:10:52.789Z,11.39
2022-08-29T05:13:14.362Z,11.32
2022-08-29T05:15:38.500Z,11.47
2022-08-29T05:17:59.967Z,11.52
2022-08-29T05:20:21.920Z,11.34
2022-08-29T05:22:43.432Z,11.34
2022-08-29T05:25:05.527Z,11.36
2022-08-29T05:27:26.983Z,11.29
2022-08-29T05:29:51.376Z,11.50
2022-08-29T05:32:14.928Z,11.61
2022-08-29T05:34:38.630Z,11.72
2022-08-29T05:37:00.369Z,11.91
2022-08-29T05:39:21.880Z,12.14
2022-08-29T05:41:43.334Z,12.18
2022-08-29T05:44:04.833Z,12.16
2022-08-29T05:46:26.312Z,12.27
2022-08-29T05:48:48.426Z,12.35
2022-08-29T05:51:16.499Z,12.48
2022-08-29T05:53:37.940Z,12.50
2022-08-29T05:55:59.411Z,12.60
2022-08-29T05:58:21.007Z,12.63
2022-08-29T06:00:43.874Z,12.77
2022-08-29T06:03:05.434Z,12.83
2022-08-29T06:05:26.957Z,12.90
2022-08-29T06:07:48.414Z,13.00
2022-08-29T06:10:10.006Z,13.07
2022-08-29T06:12:31.448Z,13.14
2022-08-29T06:14:52.962Z,13.24
2022-08-29T06:17:14.409Z,13.31
2022-08-29T06:19:36.381Z,13.40
2022-08-29T06:21:57.888Z,13.54
2022-08-29T06:24:19.329Z,13.67
2022-08-29T06:26:40.910Z,13.72
2022-08-29T06:29:10.294Z,13.87
2022-08-29T06:31:31.861Z,13.99
2022-08-29T06:33:59.531Z,14.09
2022-08-29T06:36:21.339Z,14.23
2022-08-29T06:38:42.911Z,14.31
2022-08-29T06:41:10.875Z,14.44
2022-08-29T06:43:32.583Z,14.56
2022-08-29T06:45:54.197Z,14.69
2022-08-29T06:48:15.819Z,14.84
2022-08-29T06:50:41.280Z,15.01
2022-08-29T06:53:26.568Z,15.10
2022-08-29T06:55:49.273Z,15.27
2022-08-29T06:58:14.058Z,15.36
2022-08-29T07:00:35.622Z,15.50
2022-08-29T07:02:57.161Z,15.67
2022-08-29T07:05:18.826Z,15.80
2022-08-29T07:07:41.837Z,16.01
2022-08-29T07:10:03.549Z,16.18
2022-08-29T07:12:25.550Z,16.40
2022-08-29T07:14:50.203Z,16.51
2022-08-29T07:17:18.944Z,16.68
2022-08-29T07:19:47.940Z,16.80
2022-08-29T07:22:09.383Z,16.90
2022-08-29T07:24:30.863Z,17.01
2022-08-29T07:26:52.310Z,17.12
2022-08-29T07:29:17.848Z,17.07
2022-08-29T07:31:39.579Z,17.09
2022-08-29T07:34:03.294Z,17.04
2022-08-29T07:36:24.925Z,17.27
2022-08-29T07:38:46.430Z,17.39
2022-08-29T07:41:10.323Z,17.40
2022-08-29T07:43:31.986Z,17.59
2022-08-29T07:45:54.954Z,17.81
2022-08-29T07:48:19.890Z,18.06
2022-08-29T07:50:43.935Z,18.07
2022-08-29T07:53:05.443Z,18.14
2022-08-29T07:55:26.906Z,18.37
2022-08-29T07:57:51.659Z,18.54
2022-08-29T08:00:13.380Z,18.65
2022-08-29T08:02:34.876Z,18.92
2022-08-29T08:04:56.431Z,18.85
2022-08-29T08:07:18.776Z,19.08
2022-08-29T08:09:40.858Z,19.08
2022-08-29T08:12:08.277Z,19.40
2022-08-29T08:14:34.772Z,19.65
2022-08-29T08:16:56.794Z,19.87
2022-08-29T08:19:18.838Z,20.07
2022-08-29T08:21:43.713Z,20.16
2022-08-29T08:24:14.947Z,20.27
2022-08-29T08:26:38.835Z,20.49
2022-08-29T08:29:00.319Z,20.58
2022-08-29T08:31:21.807Z,20.89
2022-08-29T08:33:44.450Z,20.95
2022-08-29T08:36:19.432Z,21.01
2022-08-29T08:38:40.886Z,21.21
2022-08-29T08:41:36.117Z,21.41
2022-08-29T08:43:59.062Z,21.42
2022-08-29T08:46:41.219Z,21.65
2022-08-29T08:49:07.631Z,21.97
2022-08-29T08:51:34.980Z,22.32
2022-08-29T08:53:59.187Z,22.36
2022-08-29T08:56:36.336Z,22.44
2022-08-29T08:59:05.341Z,22.37
2022-08-29T09:01:34.379Z,22.40
2022-08-29T09:04:07.790Z,22.51
2022-08-29T09:06:53.858Z,22.55
2022-08-29T09:09:31.200Z,22.66
2022-08-29T09:12:05.922Z,22.59
2022-08-29T09:14:39.023Z,22.71
2022-08-29T09:17:02.161Z,22.64
2022-08-29T09:19:25.041Z,22.54
2022-08-29T09:21:53.905Z,22.66
2022-08-29T09:24:31.540Z,22.73
2022-08-29T09:26:52.980Z,22.78
2022-08-29T09:29:14.494Z,22.81
2022-08-29T09:31:36.054Z,22.95
2022-08-29T09:34:03.581Z,23.17
2022-08-29T09:36:47.285Z,23.15
2022-08-29T09:39:31.336Z,23.38
2022-08-29T09:42:00.364Z,23.62
2022-08-29T09:44:27.295Z,24.08
2022-08-29T09:47:05.744Z,24.11
2022-08-29T09:49:27.188Z,24.22
2022-08-29T09:51:49.291Z,24.37
2022-08-29T09:54:16.744Z,24.52
2022-08-29T09:56:48.225Z,24.65
2022-08-29T09:59:31.551Z,24.64
2022-08-29T10:02:22.284Z,24.63
2022-08-29T10:04:45.990Z,24.53
2022-08-29T10:07:19.715Z,24.57
2022-08-29T10:09:41.239Z,24.57
2022-08-29T10:12:10.177Z,24.68
2022-08-29T10:14:40.727Z,24.83
2022-08-29T10:17:46.613Z,24.58
2022-08-29T10:20:11.663Z,24.56
2022-08-29T10:22:41.959Z,24.92
2022-08-29T10:25:13.501Z,25.06
2022-08-29T10:27:45.509Z,25.26
2022-08-29T10:30:12.417Z,25.57
2022-08-29T10:32:40.075Z,25.20
2022-08-29T10:35:43.555Z,25.36
2022-08-29T10:38:33.606Z,25.38
2022-08-29T10:41:17.206Z,25.41
2022-08-29T10:43:41.961Z,25.47
2022-08-29T10:46:39.213Z,25.91
2022-08-29T10:49:32.921Z,25.81
2022-08-29T10:52:07.364Z,25.36
2022-08-29T10:54:56.762Z,25.38
2022-08-29T10:57:45.449Z,25.59
2022-08-29T11:00:11.515Z,25.62
2022-08-29T11:02:43.877Z,25.67
2022-08-29T11:05:14.249Z,25.82
2022-08-29T11:07:43.565Z,25.73
2022-08-29T11:10:17.673Z,25.32
2022-08-29T11:12:47.854Z,25.23
2022-08-29T11:15:28.143Z,25.03
2022-08-29T11:18:15.612Z,25.08
2022-08-29T11:20:50.316Z,25.32
2022-08-29T11:23:26.495Z,25.46
2022-08-29T11:25:48.226Z,25.38
2022-08-29T11:28:48.060Z,25.49
2022-08-29T11:31:24.606Z,25.53
2022-08-29T11:34:07.817Z,25.68
2022-08-29T11:37:03.679Z,25.83
2022-08-29T11:39:56.509Z,26.41
2022-08-29T11:45:07.558Z,26.47
2022-08-29T11:47:47.073Z,26.35
2022-08-29T11:50:14.597Z,26.81
2022-08-29T11:52:36.137Z,26.93
2022-08-29T11:55:24.186Z,27.15
2022-08-29T11:57:49.752Z,27.64
2022-08-29T12:00:27.456Z,28.07
2022-08-29T12:02:49.142Z,28.33
2022-08-29T12:05:16.556Z,28.60
2022-08-29T12:07:42.869Z,28.59
2022-08-29T12:10:27.077Z,28.30
2022-08-29T12:12:56.567Z,28.36
2022-08-29T12:15:27.084Z,28.38
2022-08-29T12:18:04.368Z,28.39
2022-08-29T12:20:32.198Z,28.41
2022-08-29T12:22:59.354Z,28.42
2022-08-29T12:25:43.334Z,29.46
2022-08-29T12:28:31.162Z,30.09
2022-08-29T12:30:59.399Z,30.29
2022-08-29T12:34:04.749Z,31.38
2022-08-29T12:36:52.377Z,31.42
2022-08-29T12:39:37.947Z,30.90
2022-08-29T12:42:17.647Z,30.79
2022-08-29T12:44:41.026Z,30.68
2022-08-29T12:47:08.407Z,30.45
2022-08-29T12:49:51.716Z,30.99
2022-08-29T12:52:26.688Z,31.62
2022-08-29T12:54:48.250Z,32.06
2022-08-29T12:57:19.804Z,32.39
2022-08-29T12:59:45.337Z,31.78
2022-08-29T13:02:07.537Z,31.49
2022-08-29T13:04:34.016Z,31.91
2022-08-29T13:07:07.727Z,32.90
2022-08-29T13:09:31.388Z,33.05
2022-08-29T13:12:25.421Z,32.29
2022-08-29T13:15:01.765Z,31.53
2022-08-29T13:17:36.837Z,31.45
2022-08-29T13:20:35.935Z,31.32
2022-08-29T13:23:12.369Z,31.03
2022-08-29T13:25:34.625Z,31.17
2022-08-29T13:28:01.598Z,30.85
2022-08-29T13:30:25.113Z,31.12
2022-08-29T13:32:53.729Z,31.74
2022-08-29T13:35:15.222Z,32.93
2022-08-29T13:37:40.082Z,33.87
2022-08-29T13:40:31.402Z,33.81
2022-08-29T13:42:53.145Z,34.24
2022-08-29T13:45:19.818Z,34.99
2022-08-29T13:47:51.374Z,35.25
2022-08-29T13:50:13.298Z,35.16
2022-08-29T13:52:34.764Z,34.80
2022-08-29T13:54:56.411Z,34.43
2022-08-29T13:57:20.617Z,33.83
2022-08-29T13:59:42.093Z,33.01
2022-08-29T14:02:09.478Z,32.11
2022-08-29T14:04:38.758Z,31.58
2022-08-29T14:07:02.483Z,30.83
2022-08-29T14:09:32.689Z,30.25
2022-08-29T14:11:54.165Z,30.17
2022-08-29T14:14:15.777Z,29.71
2022-08-29T14:16:37.535Z,29.45
2022-08-29T14:18:59.007Z,29.56
2022-08-29T14:21:20.495Z,29.97
2022-08-29T14:23:41.955Z,30.59
2022-08-29T14:26:03.633Z,31.17
2022-08-29T14:28:25.129Z,31.63
2022-08-29T14:30:47.861Z,32.20
2022-08-29T14:33:13.765Z,32.87
2022-08-29T14:35:35.951Z,33.17
2022-08-29T14:38:05.413Z,33.40
2022-08-29T14:40:33.445Z,33.36
2022-08-29T14:42:54.975Z,33.36
2022-08-29T14:45:16.463Z,34.07
2022-08-29T14:47:38.693Z,34.21
2022-08-29T14:50:00.728Z,33.92
2022-08-29T14:52:22.241Z,34.27
2022-08-29T14:54:44.037Z,34.35
2022-08-29T14:57:05.622Z,34.21
2022-08-29T14:59:27.150Z,34.55
2022-08-29T15:01:53.886Z,34.71
2022-08-29T15:04:15.564Z,35.40
2022-08-29T15:06:38.964Z,36.49
2022-08-29T15:09:01.305Z,36.30
2022-08-29T15:11:22.748Z,36.26
2022-08-29T15:13:44.296Z,36.69
2022-08-29T15:16:05.978Z,36.70
2022-08-29T15:19:09.536Z,36.82
2022-08-29T15:21:08.962Z,35.74
2022-08-29T15:23:30.421Z,35.11
2022-08-29T15:25:52.808Z,34.54
2022-08-29T15:28:14.399Z,34.15
2022-08-29T15:30:35.892Z,33.40
2022-08-29T15:32:57.355Z,32.73
2022-08-29T15:35:18.944Z,32.64
2022-08-29T15:37:40.451Z,33.02
2022-08-29T15:40:02.537Z,33.17
2022-08-29T15:42:29.545Z,33.88
2022-08-29T15:44:52.100Z,34.32
2022-08-29T15:47:14.438Z,34.76
2022-08-29T15:49:37.065Z,34.57
2022-08-29T15:51:59.039Z,33.89
2022-08-29T15:54:22.177Z,33.80
2022-08-29T15:56:43.921Z,33.64
2022-08-29T15:59:07.927Z,33.17
2022-08-29T16:01:29.480Z,32.88
2022-08-29T16:03:50.925Z,32.19
2022-08-29T16:06:12.397Z,31.80
2022-08-29T16:08:34.260Z,31.93
2022-08-29T16:10:55.698Z,31.57
2022-08-29T16:13:17.527Z,31.41
2022-08-29T16:15:39.045Z,31.04
2022-08-29T16:18:02.539Z,30.68
2022-08-29T16:20:24.027Z,30.67
2022-08-29T16:22:45.568Z,30.25
2022-08-29T16:25:08.949Z,30.12
2022-08-29T16:27:30.496Z,30.05
2022-08-29T16:29:53.211Z,29.93
2022-08-29T16:32:14.671Z,29.91
2022-08-29T16:34:36.200Z,29.72
2022-08-29T16:36:59.194Z,29.69
2022-08-29T16:39:20.615Z,29.36
2022-08-29T16:41:44.977Z,29.05
2022-08-29T16:44:07.116Z,28.99
2022-08-29T16:46:31.129Z,28.82
2022-08-29T16:48:52.854Z,28.70
2022-08-29T16:51:14.444Z,28.60
2022-08-29T16:53:40.667Z,28.43
2022-08-29T16:56:06.461Z,28.42
2022-08-29T16:58:46.348Z,28.23
2022-08-29T17:01:07.930Z,28.12
2022-08-29T17:03:29.421Z,28.10
2022-08-29T17:05:50.899Z,28.05
2022-08-29T17:08:12.294Z,27.87
2022-08-29T17:10:33.741Z,27.95
2022-08-29T17:12:55.175Z,27.83
2022-08-29T17:15:16.692Z,27.81
2022-08-29T17:17:38.134Z,27.85
2022-08-29T17:19:59.602Z,27.76
2022-08-29T17:22:21.469Z,27.97
2022-08-29T17:24:44.529Z,27.94
2022-08-29T17:27:05.968Z,27.92
2022-08-29T17:29:27.388Z,27.88
2022-08-29T17:31:49.052Z,27.87
2022-08-29T17:34:10.857Z,27.70
2022-08-29T17:36:33.654Z,27.63
2022-08-29T17:38:55.455Z,27.69
2022-08-29T17:41:19.971Z,27.65
2022-08-29T17:43:43.479Z,27.67
2022-08-29T17:46:05.018Z,27.64
2022-08-29T17:48:26.497Z,27.49
2022-08-29T17:50:49.285Z,27.52
2022-08-29T17:53:11.597Z,27.33
2022-08-29T17:55:33.074Z,27.19
2022-08-29T17:57:54.557Z,27.22
2022-08-29T18:00:16.538Z,27.14
2022-08-29T18:02:38.179Z,26.98
2022-08-29T18:04:59.813Z,26.87
2022-08-29T18:07:21.998Z,26.84
2022-08-29T18:09:43.777Z,26.71
2022-08-29T18:12:05.802Z,26.62
2022-08-29T18:14:28.212Z,26.42
2022-08-29T18:16:50.756Z,26.16
2022-08-29T18:19:13.517Z,25.96
2022-08-29T18:21:35.733Z,25.73
2022-08-29T18:23:57.544Z,25.47
2022-08-29T18:26:19.001Z,25.03
2022-08-29T18:28:41.049Z,24.76
2022-08-29T18:31:03.353Z,24.67
2022-08-29T18:33:38.795Z,24.56
2022-08-29T18:36:09.139Z,24.48
2022-08-29T18:38:30.588Z,24.38
2022-08-29T18:40:53.165Z,24.23
2022-08-29T18:43:15.343Z,24.18
2022-08-29T18:45:37.580Z,23.86
2022-08-29T18:48:00.262Z,23.54
2022-08-29T18:50:34.244Z,23.23
2022-08-29T18:52:56.303Z,23.02
2022-08-29T18:55:18.274Z,22.93
2022-08-29T18:57:40.201Z,22.88
2022-08-29T19:00:02.948Z,22.76
2022-08-29T19:02:25.543Z,22.78
2022-08-29T19:04:47.550Z,22.70
2022-08-29T19:07:09.263Z,22.34
2022-08-29T19:09:31.335Z,22.30
2022-08-29T19:11:52.788Z,22.19
2022-08-29T19:14:15.005Z,22.27
2022-08-29T19:16:37.038Z,22.17
2022-08-29T19:18:58.792Z,21.64
2022-08-29T19:21:20.540Z,21.66
2022-08-29T19:23:45.415Z,21.62
2022-08-29T19:26:10.232Z,21.58
2022-08-29T19:28:31.875Z,21.50
2022-08-29T19:30:55.437Z,21.44
2022-08-29T19:33:18.371Z,21.48
2022-08-29T19:35:39.833Z,21.06
2022-08-29T19:38:01.304Z,21.08
2022-08-29T19:40:23.448Z,21.07
2022-08-29T19:42:46.020Z,20.82
2022-08-29T19:45:10.764Z,20.77
2022-08-29T19:47:33.213Z,20.53
2022-08-29T19:49:55.191Z,20.48
2022-08-29T19:52:17.886Z,20.46
2022-08-29T19:54:39.414Z,20.50
2022-08-29T19:57:05.168Z,20.36
2022-08-29T19:59:26.712Z,20.08
2022-08-29T20:01:48.952Z,19.74
2022-08-29T20:04:11.016Z,19.60
2022-08-29T20:06:34.767Z,19.59
2022-08-29T20:08:57.408Z,19.63
2022-08-29T20:11:23.691Z,19.60
2022-08-29T20:13:50.499Z,19.57
2022-08-29T20:16:14.832Z,19.53
2022-08-29T20:18:43.836Z,19.38
2022-08-29T20:21:05.422Z,19.36
2022-08-29T20:23:27.554Z,18.75
2022-08-29T20:25:49.230Z,18.85
2022-08-29T20:28:15.588Z,18.77
2022-08-29T20:30:38.814Z,18.80
2022-08-29T20:33:00.878Z,18.82
2022-08-29T20:35:41.714Z,18.85
2022-08-29T20:38:03.236Z,18.81
2022-08-29T20:40:26.117Z,18.43
2022-08-29T20:42:47.665Z,18.50
2022-08-29T20:45:09.422Z,18.21
2022-08-29T20:47:30.876Z,18.05
2022-08-29T20:49:55.426Z,18.04
2022-08-29T20:52:19.810Z,18.09
2022-08-29T20:54:41.293Z,18.08
2022-08-29T20:57:07.841Z,17.98
2022-08-29T20:59:34.533Z,17.93
2022-08-29T21:01:56.167Z,17.79
2022-08-29T21:04:36.966Z,17.64
2022-08-29T21:07:11.116Z,17.64
2022-08-29T21:09:34.788Z,17.59
2022-08-29T21:11:57.456Z,17.59
2022-08-29T21:14:19.319Z,17.60
2022-08-29T21:16:40.941Z,17.55
2022-08-29T21:19:08.610Z,17.40
2022-08-29T21:21:30.046Z,17.05
2022-08-29T21:23:51.708Z,16.66
2022-08-29T21:26:14.203Z,16.67
2022-08-29T21:28:36.894Z,16.85
2022-08-29T21:31:06.071Z,16.87
2022-08-29T21:33:27.553Z,17.00
2022-08-29T21:35:51.158Z,16.89
2022-08-29T21:38:12.693Z,16.72
2022-08-29T21:40:34.799Z,16.53
2022-08-29T21:42:56.348Z,16.58
2022-08-29T21:45:17.889Z,16.37
2022-08-29T21:47:39.318Z,16.44
2022-08-29T21:50:00.863Z,16.43
2022-08-29T21:52:22.377Z,16.45
2022-08-29T21:54:44.107Z,16.55
2022-08-29T21:57:05.565Z,16.52
2022-08-29T21:59:28.085Z,16.24
2022-08-29T22:01:54.895Z,16.15
2022-08-29T22:04:19.372Z,15.97
2022-08-29T22:06:52.820Z,15.88
2022-08-29T22:09:17.312Z,15.96
2022-08-29T22:11:38.950Z,15.98
2022-08-29T22:14:00.473Z,16.06
2022-08-29T22:16:28.742Z,15.95
2022-08-29T22:18:50.311Z,15.74
2022-08-29T22:21:15.345Z,15.85
2022-08-29T22:23:37.022Z,15.50
2022-08-29T22:25:58.931Z,15.70
2022-08-29T22:28:21.267Z,15.73
2022-08-29T22:30:42.803Z,15.80
2022-08-29T22:33:05.253Z,15.71
2022-08-29T22:35:26.738Z,15.61
2022-08-29T22:37:48.389Z,15.66
2022-08-29T22:40:13.799Z,15.74
2022-08-29T22:42:35.719Z,15.71
2022-08-29T22:45:03.533Z,15.61
2022-08-29T22:47:25.832Z,15.62
2022-08-29T22:49:47.298Z,15.50
2022-08-29T22:52:11.476Z,15.25
2022-08-29T22:54:35.935Z,15.16
2022-08-29T22:56:57.393Z,15.12
2022-08-29T22:59:18.862Z,15.23
2022-08-29T23:01:42.985Z,15.29
2022-08-29T23:04:05.903Z,15.36
2022-08-29T23:06:29.099Z,15.32
2022-08-29T23:08:50.777Z,15.41
2022-08-29T23:11:12.197Z,15.16
2022-08-29T23:13:34.026Z,15.01
2022-08-29T23:15:57.956Z,15.02
2022-08-29T23:18:19.545Z,15.07
2022-08-29T23:20:40.975Z,15.06
2022-08-29T23:23:02.667Z,15.09
2022-08-29T23:25:24.154Z,15.06
2022-08-29T23:27:45.634Z,14.83
2022-08-29T23:30:10.347Z,14.76
2022-08-29T23:32:31.836Z,14.85
2022-08-29T23:34:53.705Z,14.86
2022-08-29T23:37:15.181Z,14.66
2022-08-29T23:39:36.628Z,14.61
2022-08-29T23:41:58.090Z,14.70
2022-08-29T23:44:19.590Z,14.69
2022-08-29T23:46:41.421Z,14.54
2022-08-29T23:49:02.930Z,14.28
2022-08-29T23:51:24.407Z,14.30
2022-08-29T23:53:47.105Z,14.36
2022-08-29T23:56:14.938Z,14.39
2022-08-29T23:58:36.646Z,14.37
